createdAt,value
2018-10-05T00:00:28.968Z,8.70
2018-10-05T00:02:57.788Z,9.88
2018-10-05T00:05:26.586Z,10.45
2018-10-05T00:07:55.333Z,13.28
2018-10-05T00:10:24.073Z,12.47
2018-10-05T00:12:53.030Z,8.60
2018-10-05T00:15:21.729Z,10.85
2018-10-05T00:17:50.474Z,18.07
2018-10-05T00:20:19.238Z,15.05
2018-10-05T00:22:47.940Z,11.83
2018-10-05T00:25:16.666Z,13.50
2018-10-05T00:27:45.373Z,9.28
2018-10-05T00:30:14.210Z,15.13
2018-10-05T00:32:42.958Z,18.52
2018-10-05T00:35:11.682Z,17.82
2018-10-05T00:37:40.402Z,14.63
2018-10-05T00:40:09.197Z,16.32
2018-10-05T00:42:37.992Z,13.30
2018-10-05T00:45:06.854Z,9.20
2018-10-05T00:47:35.555Z,14.68
2018-10-05T00:50:04.417Z,26.75
2018-10-05T00:52:33.244Z,13.40
2018-10-05T00:55:02.010Z,16.20
2018-10-05T00:57:30.819Z,17.75
2018-10-05T00:59:59.585Z,15.53
2018-10-05T01:02:28.268Z,18.15
2018-10-05T01:04:56.998Z,21.02
2018-10-05T01:07:25.717Z,19.60
2018-10-05T01:09:54.435Z,16.70
2018-10-05T01:12:23.191Z,16.25
2018-10-05T01:14:56.902Z,16.60
2018-10-05T01:17:28.564Z,22.80
2018-10-05T01:20:00.386Z,8.50
2018-10-05T01:22:32.968Z,18.17
2018-10-05T01:25:07.272Z,7.97
2018-10-05T01:27:41.882Z,13.13
2018-10-05T01:30:15.526Z,8.95
2018-10-05T01:32:48.925Z,13.68
2018-10-05T01:35:22.256Z,12.37
2018-10-05T01:37:57.139Z,14.47
2018-10-05T01:40:30.330Z,14.33
2018-10-05T01:43:05.845Z,13.50
2018-10-05T01:45:39.032Z,9.00
2018-10-05T01:48:13.193Z,7.87
2018-10-05T01:50:48.277Z,14.03
2018-10-05T01:53:21.313Z,14.05
2018-10-05T01:55:58.933Z,13.20
2018-10-05T01:58:33.701Z,11.28
2018-10-05T02:01:08.033Z,18.32
2018-10-05T02:03:37.986Z,11.57
2018-10-05T02:06:06.706Z,14.23
2018-10-05T02:08:35.559Z,8.05
2018-10-05T02:11:04.269Z,8.38
2018-10-05T02:13:33.022Z,8.80
2018-10-05T02:16:01.706Z,10.68
2018-10-05T02:18:30.438Z,19.57
2018-10-05T02:20:59.177Z,11.85
2018-10-05T02:23:27.959Z,11.63
2018-10-05T02:25:56.990Z,21.75
2018-10-05T02:28:25.749Z,8.85
2018-10-05T02:30:54.428Z,16.05
2018-10-05T02:33:23.177Z,9.90
2018-10-05T02:35:51.989Z,19.98
2018-10-05T02:38:20.846Z,8.65
2018-10-05T02:40:49.601Z,10.35
2018-10-05T02:43:18.382Z,6.92
2018-10-05T02:45:47.126Z,12.80
2018-10-05T02:48:15.932Z,10.00
2018-10-05T02:50:44.742Z,10.32
2018-10-05T02:53:13.461Z,13.75
2018-10-05T02:55:42.265Z,14.53
2018-10-05T02:58:11.105Z,13.43
2018-10-05T03:00:51.058Z,12.40
2018-10-05T03:03:19.813Z,19.30
2018-10-05T03:05:48.575Z,14.18
2018-10-05T03:08:17.313Z,16.12
2018-10-05T03:10:46.130Z,14.90
2018-10-05T03:13:14.913Z,7.97
2018-10-05T03:15:43.633Z,14.43
2018-10-05T03:18:12.414Z,11.68
2018-10-05T03:20:41.170Z,15.95
2018-10-05T03:23:09.905Z,6.22
2018-10-05T03:25:38.705Z,9.03
2018-10-05T03:28:07.449Z,15.28
2018-10-05T03:30:36.160Z,17.55
2018-10-05T03:33:04.959Z,14.53
2018-10-05T03:35:33.753Z,13.08
2018-10-05T03:38:02.466Z,11.20
2018-10-05T03:40:31.187Z,8.73
2018-10-05T03:42:59.894Z,11.60
2018-10-05T03:45:28.686Z,11.53
2018-10-05T03:47:57.485Z,10.35
2018-10-05T03:50:26.233Z,14.20
2018-10-05T03:52:55.006Z,11.00
2018-10-05T03:55:23.713Z,17.05
2018-10-05T03:57:52.501Z,17.20
2018-10-05T04:00:21.298Z,14.38
2018-10-05T04:02:50.031Z,19.05
2018-10-05T04:05:18.889Z,17.65
2018-10-05T04:07:47.683Z,40.50
2018-10-05T04:10:16.447Z,21.27
2018-10-05T04:12:45.356Z,19.45
2018-10-05T04:15:14.160Z,13.65
2018-10-05T04:17:43.232Z,12.30
2018-10-05T04:20:12.714Z,14.53
2018-10-05T04:22:41.502Z,17.12
2018-10-05T04:25:10.189Z,15.18
2018-10-05T04:27:39.043Z,20.90
2018-10-05T04:30:07.836Z,13.75
2018-10-05T04:32:36.616Z,9.85
2018-10-05T04:35:05.565Z,21.85
2018-10-05T04:37:34.340Z,12.13
2018-10-05T04:40:03.189Z,19.42
2018-10-05T04:42:32.017Z,14.58
2018-10-05T04:45:00.822Z,25.15
2018-10-05T04:47:29.653Z,21.33
2018-10-05T04:49:58.363Z,12.65
2018-10-05T04:52:27.182Z,18.15
2018-10-05T04:54:55.975Z,12.07
2018-10-05T04:57:24.761Z,17.95
2018-10-05T04:59:53.590Z,21.15
2018-10-05T05:02:22.397Z,14.15
2018-10-05T05:04:51.229Z,13.43
2018-10-05T05:07:19.986Z,13.30
2018-10-05T05:09:48.789Z,16.82
2018-10-05T05:12:17.637Z,18.17
2018-10-05T05:14:46.362Z,15.28
2018-10-05T05:17:15.109Z,20.80
2018-10-05T05:19:43.945Z,19.37
2018-10-05T05:22:12.693Z,18.82
2018-10-05T05:24:41.471Z,15.63
2018-10-05T05:27:10.193Z,21.37
2018-10-05T05:29:38.963Z,24.35
2018-10-05T05:32:07.782Z,28.35
2018-10-05T05:34:36.613Z,19.12
2018-10-05T05:37:05.522Z,17.23
2018-10-05T05:39:34.269Z,14.58
2018-10-05T05:42:03.109Z,19.77
2018-10-05T05:44:31.948Z,12.58
2018-10-05T05:47:00.686Z,20.15
2018-10-05T05:49:29.429Z,28.10
2018-10-05T05:51:58.208Z,18.92
2018-10-05T05:54:27.019Z,25.10
2018-10-05T05:56:55.884Z,12.23
2018-10-05T05:59:24.598Z,16.85
2018-10-05T06:01:53.506Z,18.40
2018-10-05T06:04:22.334Z,15.40
2018-10-05T06:06:51.255Z,17.15
2018-10-05T06:09:20.053Z,9.05
2018-10-05T06:11:48.816Z,17.57
2018-10-05T06:14:17.617Z,14.68
2018-10-05T06:16:46.395Z,15.20
2018-10-05T06:19:15.276Z,27.35
2018-10-05T06:21:44.380Z,29.92
2018-10-05T06:24:13.417Z,21.93
2018-10-05T06:26:43.072Z,15.13
2018-10-05T06:29:11.995Z,15.23
2018-10-05T06:31:40.914Z,21.45
2018-10-05T06:34:09.650Z,20.02
2018-10-05T06:36:38.364Z,34.33
2018-10-05T06:39:08.649Z,32.38
2018-10-05T06:41:37.429Z,32.45
2018-10-05T06:44:11.010Z,21.75
2018-10-05T06:46:39.745Z,15.30
2018-10-05T06:49:08.540Z,16.82
2018-10-05T06:51:37.336Z,16.12
2018-10-05T06:54:06.073Z,27.20
2018-10-05T06:56:34.862Z,35.03
2018-10-05T06:59:03.985Z,32.67
2018-10-05T07:01:32.782Z,19.40
2018-10-05T07:04:01.415Z,32.35
2018-10-05T07:06:30.197Z,25.12
2018-10-05T07:08:59.023Z,27.73
2018-10-05T07:11:27.914Z,27.87
2018-10-05T07:13:56.713Z,28.95
2018-10-05T07:16:25.486Z,34.27
2018-10-05T07:18:54.206Z,19.73
2018-10-05T07:21:23.114Z,30.48
2018-10-05T07:23:51.948Z,31.82
2018-10-05T07:26:20.845Z,19.15
2018-10-05T07:28:56.143Z,23.77
2018-10-05T07:31:25.014Z,32.25
2018-10-05T07:33:53.792Z,26.80
2018-10-05T07:36:22.718Z,24.63
2018-10-05T07:38:51.502Z,26.35
2018-10-05T07:41:20.466Z,36.17
2018-10-05T07:43:49.351Z,28.85
2018-10-05T07:46:18.295Z,39.00
2018-10-05T07:48:47.130Z,28.40
2018-10-05T07:51:16.082Z,28.50
2018-10-05T07:53:45.559Z,30.70
2018-10-05T07:56:14.480Z,38.88
2018-10-05T07:58:43.511Z,25.52
2018-10-05T08:01:12.568Z,22.67
2018-10-05T08:03:44.370Z,40.40
2018-10-05T08:06:13.225Z,37.28
2018-10-05T08:08:42.136Z,42.70
2018-10-05T08:11:11.173Z,32.53
2018-10-05T08:13:39.984Z,36.40
2018-10-05T08:16:08.833Z,42.08
2018-10-05T08:18:37.850Z,40.35
2018-10-05T08:21:06.814Z,25.90
2018-10-05T08:23:36.808Z,21.05
2018-10-05T08:26:06.643Z,32.75
2018-10-05T08:28:35.457Z,24.52
2018-10-05T08:31:04.480Z,25.62
2018-10-05T08:33:33.753Z,32.38
2018-10-05T08:36:03.257Z,29.60
2018-10-05T08:38:32.756Z,25.03
2018-10-05T08:41:02.318Z,31.20
2018-10-05T08:43:31.738Z,26.40
2018-10-05T08:46:00.663Z,29.90
2018-10-05T08:48:29.933Z,18.40
2018-10-05T08:50:59.455Z,32.93
2018-10-05T08:53:29.787Z,21.80
2018-10-05T08:55:59.137Z,19.87
2018-10-05T08:58:27.886Z,26.33
2018-10-05T09:00:57.018Z,22.27
2018-10-05T09:03:25.970Z,30.97
2018-10-05T09:05:55.741Z,35.80
2018-10-05T09:08:25.230Z,19.67
2018-10-05T09:10:54.081Z,44.67
2018-10-05T09:13:23.594Z,34.93
2018-10-05T09:15:52.362Z,27.60
2018-10-05T09:18:21.192Z,19.27
2018-10-05T09:20:50.045Z,24.83
2018-10-05T09:23:19.041Z,21.97
2018-10-05T09:25:47.854Z,25.53
2018-10-05T09:28:16.708Z,23.73
2018-10-05T09:30:45.799Z,24.83
2018-10-05T09:33:14.475Z,23.07
2018-10-05T09:35:43.561Z,23.93
2018-10-05T09:38:12.503Z,23.13
2018-10-05T09:40:46.837Z,23.70
2018-10-05T09:43:16.256Z,25.97
2018-10-05T09:45:45.313Z,25.50
2018-10-05T09:48:14.444Z,25.10
2018-10-05T09:50:43.551Z,29.90
2018-10-05T09:53:12.830Z,19.43
2018-10-05T09:55:42.277Z,18.87
2018-10-05T09:58:11.078Z,15.90
2018-10-05T10:00:45.257Z,24.47
2018-10-05T10:03:19.225Z,28.93
2018-10-05T10:06:14.111Z,20.03
2018-10-05T10:09:05.759Z,21.00
2018-10-05T10:11:34.513Z,21.10
2018-10-05T10:14:15.657Z,31.93
2018-10-05T10:16:44.589Z,20.37
2018-10-05T10:19:13.408Z,19.87
2018-10-05T10:21:42.381Z,36.23
2018-10-05T10:24:11.120Z,21.87
2018-10-05T10:26:45.977Z,31.30
2018-10-05T10:29:15.918Z,16.47
2018-10-05T10:31:44.890Z,24.43
2018-10-05T10:34:13.885Z,20.30
2018-10-05T10:36:43.005Z,23.87
2018-10-05T10:39:11.758Z,20.70
2018-10-05T10:41:40.638Z,20.80
2018-10-05T10:44:10.887Z,27.23
2018-10-05T10:46:39.595Z,21.20
2018-10-05T10:49:09.451Z,24.70
2018-10-05T10:51:38.227Z,13.93
2018-10-05T10:54:07.194Z,17.13
2018-10-05T10:56:35.951Z,15.57
2018-10-05T10:59:04.825Z,13.30
2018-10-05T11:01:33.629Z,14.40
2018-10-05T11:04:02.306Z,15.40
2018-10-05T11:06:31.131Z,12.07
2018-10-05T11:09:00.058Z,16.90
2018-10-05T11:11:31.623Z,11.13
2018-10-05T11:14:02.896Z,11.70
2018-10-05T11:16:31.706Z,16.70
2018-10-05T11:19:00.673Z,16.43
2018-10-05T11:21:30.274Z,12.53
2018-10-05T11:23:59.095Z,13.90
2018-10-05T11:26:28.073Z,11.70
2018-10-05T11:28:56.944Z,10.83
2018-10-05T11:31:27.204Z,11.03
2018-10-05T11:33:56.471Z,14.37
2018-10-05T11:36:25.175Z,13.53
2018-10-05T11:38:54.237Z,19.60
2018-10-05T11:41:25.101Z,17.07
2018-10-05T11:43:55.930Z,10.57
2018-10-05T11:46:24.745Z,12.37
2018-10-05T11:48:54.665Z,11.77
2018-10-05T11:51:23.949Z,19.63
2018-10-05T11:53:54.310Z,16.13
2018-10-05T11:56:35.106Z,13.20
2018-10-05T11:59:05.431Z,23.07
2018-10-05T12:01:37.224Z,18.87
2018-10-05T12:04:06.560Z,12.90
2018-10-05T12:06:35.284Z,17.33
2018-10-05T12:09:05.429Z,12.43
2018-10-05T12:11:34.505Z,15.60
2018-10-05T12:14:03.414Z,13.03
2018-10-05T12:16:32.170Z,12.20
2018-10-05T12:19:00.885Z,16.97
2018-10-05T12:21:29.849Z,16.57
2018-10-05T12:23:58.600Z,13.60
2018-10-05T12:26:27.381Z,14.63
2018-10-05T12:28:56.089Z,16.97
2018-10-05T12:31:24.837Z,14.07
2018-10-05T12:33:53.654Z,20.50
2018-10-05T12:36:22.505Z,16.23
2018-10-05T12:38:51.493Z,14.03
2018-10-05T12:41:20.228Z,16.90
2018-10-05T12:43:49.046Z,16.73
2018-10-05T12:46:17.923Z,14.13
2018-10-05T12:48:46.667Z,20.67
2018-10-05T12:51:15.375Z,11.37
2018-10-05T12:53:44.058Z,10.90
2018-10-05T12:56:13.788Z,15.60
2018-10-05T12:58:42.556Z,25.33
2018-10-05T13:01:11.295Z,14.07
2018-10-05T13:03:40.170Z,16.73
2018-10-05T13:06:09.072Z,15.70
2018-10-05T13:08:37.847Z,10.37
2018-10-05T13:11:06.783Z,11.00
2018-10-05T13:13:35.583Z,20.50
2018-10-05T13:16:04.401Z,12.37
2018-10-05T13:18:33.166Z,10.10
2018-10-05T13:21:01.890Z,7.23
2018-10-05T13:23:30.875Z,7.17
2018-10-05T13:25:59.676Z,10.17
2018-10-05T13:28:29.957Z,10.83
2018-10-05T13:31:01.680Z,11.70
2018-10-05T13:33:32.806Z,9.10
2018-10-05T13:36:05.621Z,8.40
2018-10-05T13:38:34.787Z,15.73
2018-10-05T13:41:03.867Z,12.83
2018-10-05T13:43:32.703Z,11.87
2018-10-05T13:46:01.536Z,9.73
2018-10-05T13:48:30.247Z,6.37
2018-10-05T13:50:58.957Z,7.23
2018-10-05T13:53:27.749Z,8.87
2018-10-05T13:55:56.524Z,9.57
2018-10-05T13:58:25.465Z,6.80
2018-10-05T14:00:54.253Z,6.03
2018-10-05T14:03:27.459Z,11.27
2018-10-05T14:05:57.402Z,8.00
2018-10-05T14:08:26.561Z,14.50
2018-10-05T14:10:55.313Z,7.67
2018-10-05T14:13:24.979Z,9.00
2018-10-05T14:15:53.762Z,11.43
2018-10-05T14:18:40.752Z,7.63
2018-10-05T14:21:10.379Z,16.17
2018-10-05T14:23:39.099Z,12.00
2018-10-05T14:26:07.893Z,9.37
2018-10-05T14:28:36.696Z,12.03
2018-10-05T14:31:05.563Z,19.80
2018-10-05T14:33:34.245Z,11.93
2018-10-05T14:36:03.049Z,7.73
2018-10-05T14:38:31.798Z,6.37
2018-10-05T14:41:00.593Z,6.70
2018-10-05T14:43:29.362Z,16.57
2018-10-05T14:45:58.066Z,10.73
2018-10-05T14:48:26.897Z,10.47
2018-10-05T14:50:55.702Z,22.10
2018-10-05T14:53:24.457Z,13.30
2018-10-05T14:55:53.198Z,7.57
2018-10-05T14:58:21.979Z,10.73
2018-10-05T15:00:50.817Z,6.80
2018-10-05T15:03:19.577Z,9.73
2018-10-05T15:05:48.287Z,9.70
2018-10-05T15:08:17.237Z,12.23
2018-10-05T15:10:46.013Z,21.17
2018-10-05T15:13:14.759Z,8.10
2018-10-05T15:15:43.466Z,13.77
2018-10-05T15:18:12.217Z,9.53
2018-10-05T15:20:40.969Z,14.23
2018-10-05T15:23:09.785Z,9.17
2018-10-05T15:25:38.629Z,9.60
2018-10-05T15:28:07.637Z,11.77
2018-10-05T15:30:39.101Z,19.63
2018-10-05T15:33:10.068Z,5.07
2018-10-05T15:35:38.858Z,8.47
2018-10-05T15:38:07.646Z,23.60
2018-10-05T15:40:36.415Z,5.43
2018-10-05T15:43:05.377Z,6.27
2018-10-05T15:45:34.127Z,6.03
2018-10-05T15:48:02.976Z,14.97
2018-10-05T15:50:31.772Z,8.40
2018-10-05T15:53:07.092Z,8.40
2018-10-05T15:55:35.893Z,6.87
2018-10-05T15:58:04.678Z,10.07
2018-10-05T16:00:33.436Z,7.53
2018-10-05T16:03:02.153Z,8.30
2018-10-05T16:05:30.962Z,9.00
2018-10-05T16:07:59.706Z,7.37
2018-10-05T16:10:28.471Z,7.13
2018-10-05T16:12:57.843Z,12.23
2018-10-05T16:15:26.614Z,9.77
2018-10-05T16:17:55.366Z,9.23
2018-10-05T16:20:24.215Z,14.87
2018-10-05T16:22:53.212Z,9.27
2018-10-05T16:25:22.039Z,13.67
2018-10-05T16:27:51.054Z,9.60
2018-10-05T16:30:19.772Z,15.83
2018-10-05T16:32:49.326Z,17.73
2018-10-05T16:35:18.049Z,13.97
2018-10-05T16:37:46.833Z,8.10
2018-10-05T16:40:15.793Z,25.50
2018-10-05T16:42:44.682Z,12.37
2018-10-05T16:45:13.419Z,9.77
2018-10-05T16:47:42.149Z,16.53
2018-10-05T16:50:11.031Z,12.90
2018-10-05T16:52:39.786Z,9.00
2018-10-05T16:55:08.569Z,5.60
2018-10-05T16:57:37.262Z,7.27
2018-10-05T17:00:06.231Z,10.40
2018-10-05T17:02:34.964Z,6.40
2018-10-05T17:05:03.869Z,14.40
2018-10-05T17:07:32.652Z,8.87
2018-10-05T17:10:01.438Z,9.10
2018-10-05T17:12:30.149Z,8.10
2018-10-05T17:14:59.046Z,20.13
2018-10-05T17:17:27.870Z,14.10
2018-10-05T17:19:56.647Z,11.30
2018-10-05T17:22:25.627Z,7.57
2018-10-05T17:24:54.405Z,6.90
2018-10-05T17:27:23.182Z,8.57
2018-10-05T17:29:52.129Z,8.50
2018-10-05T17:32:20.987Z,10.57
2018-10-05T17:34:49.741Z,8.30
2018-10-05T17:37:18.544Z,10.37
2018-10-05T17:39:47.285Z,11.90
2018-10-05T17:42:16.056Z,11.80
2018-10-05T17:44:44.999Z,11.90
2018-10-05T17:47:13.748Z,10.07
2018-10-05T17:49:42.534Z,7.87
2018-10-05T17:52:11.259Z,8.25
2018-10-05T17:54:40.089Z,10.00
2018-10-05T17:57:08.858Z,15.68
2018-10-05T17:59:37.613Z,6.62
2018-10-05T18:02:06.459Z,12.55
2018-10-05T18:04:35.215Z,6.65
2018-10-05T18:07:04.029Z,6.47
2018-10-05T18:09:32.889Z,8.95
2018-10-05T18:12:01.714Z,13.93
2018-10-05T18:14:30.623Z,18.70
2018-10-05T18:16:59.466Z,7.53
2018-10-05T18:19:28.247Z,13.58
2018-10-05T18:21:57.003Z,8.33
2018-10-05T18:24:25.720Z,8.75
2018-10-05T18:26:54.481Z,13.70
2018-10-05T18:29:23.333Z,19.90
2018-10-05T18:31:52.252Z,9.20
2018-10-05T18:34:20.995Z,10.75
2018-10-05T18:36:49.788Z,10.05
2018-10-05T18:39:18.534Z,12.23
2018-10-05T18:41:47.313Z,11.38
2018-10-05T18:44:16.125Z,7.53
2018-10-05T18:46:44.902Z,10.30
2018-10-05T18:49:13.669Z,9.73
2018-10-05T18:51:42.507Z,10.25
2018-10-05T18:54:11.317Z,13.00
2018-10-05T18:56:51.140Z,9.65
2018-10-05T18:59:19.923Z,9.35
2018-10-05T19:01:48.724Z,11.22
2018-10-05T19:04:17.542Z,13.55
2018-10-05T19:06:46.345Z,7.72
2018-10-05T19:09:15.144Z,7.58
2018-10-05T19:11:43.902Z,12.03
2018-10-05T19:14:12.642Z,16.75
2018-10-05T19:16:41.364Z,16.45
2018-10-05T19:19:10.239Z,9.80
2018-10-05T19:21:39.040Z,15.83
2018-10-05T19:24:07.995Z,13.32
2018-10-05T19:26:36.935Z,12.95
2018-10-05T19:29:05.632Z,16.65
2018-10-05T19:31:34.332Z,13.48
2018-10-05T19:34:03.262Z,9.35
2018-10-05T19:36:32.143Z,10.95
2018-10-05T19:39:01.053Z,15.58
2018-10-05T19:41:29.859Z,14.90
2018-10-05T19:43:58.610Z,13.48
2018-10-05T19:46:27.365Z,8.93
2018-10-05T19:48:56.181Z,20.62
2018-10-05T19:51:24.978Z,22.17
2018-10-05T19:53:53.885Z,22.52
2018-10-05T19:56:22.691Z,13.40
2018-10-05T19:58:51.581Z,14.28
2018-10-05T20:01:20.680Z,13.28
2018-10-05T20:03:49.720Z,12.23
2018-10-05T20:06:27.471Z,14.53
2018-10-05T20:08:56.333Z,12.75
2018-10-05T20:11:25.475Z,22.40
2018-10-05T20:13:54.325Z,18.30
2018-10-05T20:16:23.114Z,13.40
2018-10-05T20:18:51.923Z,18.60
2018-10-05T20:21:20.685Z,11.48
2018-10-05T20:23:49.558Z,13.65
2018-10-05T20:26:18.368Z,23.12
2018-10-05T20:28:47.167Z,13.13
2018-10-05T20:31:15.922Z,13.28
2018-10-05T20:33:44.852Z,14.80
2018-10-05T20:36:13.806Z,11.55
2018-10-05T20:38:42.659Z,18.73
2018-10-05T20:41:11.674Z,17.10
2018-10-05T20:43:40.836Z,9.75
2018-10-05T20:46:09.694Z,9.90
2018-10-05T20:48:38.517Z,18.75
2018-10-05T20:51:07.380Z,13.35
2018-10-05T20:53:36.313Z,14.35
2018-10-05T20:56:05.210Z,18.07
2018-10-05T20:58:34.383Z,11.85
2018-10-05T21:01:03.226Z,15.53
2018-10-05T21:03:32.091Z,17.10
2018-10-05T21:06:00.958Z,17.98
2018-10-05T21:08:30.305Z,14.50
2018-10-05T21:10:59.163Z,19.85
2018-10-05T21:13:27.958Z,16.75
2018-10-05T21:15:56.787Z,21.33
2018-10-05T21:18:25.605Z,24.72
2018-10-05T21:20:54.389Z,20.10
2018-10-05T21:23:23.350Z,18.73
2018-10-05T21:25:52.157Z,19.95
2018-10-05T21:28:21.128Z,15.10
2018-10-05T21:30:49.892Z,16.05
2018-10-05T21:33:18.911Z,15.13
2018-10-05T21:35:47.740Z,15.63
2018-10-05T21:38:16.624Z,14.00
2018-10-05T21:40:45.581Z,18.15
2018-10-05T21:43:14.455Z,16.87
2018-10-05T21:45:43.474Z,16.40
2018-10-05T21:48:12.486Z,16.45
2018-10-05T21:50:41.529Z,21.75
2018-10-05T21:53:10.671Z,17.07
2018-10-05T21:55:39.583Z,14.93
2018-10-05T21:58:08.606Z,14.63
2018-10-05T22:00:42.453Z,17.92
2018-10-05T22:03:12.106Z,15.63
2018-10-05T22:05:41.088Z,15.72
2018-10-05T22:08:10.108Z,16.70
2018-10-05T22:10:39.005Z,20.48
2018-10-05T22:13:07.868Z,15.40
2018-10-05T22:15:36.769Z,15.72
2018-10-05T22:18:05.683Z,16.95
2018-10-05T22:20:34.643Z,17.12
2018-10-05T22:23:03.663Z,17.30
2018-10-05T22:25:32.461Z,17.27
2018-10-05T22:28:01.235Z,13.70
2018-10-05T22:30:30.041Z,13.62
2018-10-05T22:32:58.874Z,20.68
2018-10-05T22:35:27.886Z,11.60
2018-10-05T22:37:57.472Z,16.55
2018-10-05T22:40:26.607Z,13.72
2018-10-05T22:42:55.532Z,17.55
2018-10-05T22:45:24.287Z,13.15
2018-10-05T22:47:53.122Z,14.07
2018-10-05T22:50:22.012Z,17.42
2018-10-05T22:52:50.866Z,16.52
2018-10-05T22:55:19.957Z,15.25
2018-10-05T22:57:48.848Z,20.55
2018-10-05T23:00:17.821Z,14.38
2018-10-05T23:02:46.770Z,20.05
2018-10-05T23:05:15.817Z,17.57
2018-10-05T23:07:44.868Z,9.85
2018-10-05T23:10:14.022Z,13.68
2018-10-05T23:12:42.997Z,18.57
2018-10-05T23:15:11.930Z,12.40
2018-10-05T23:17:40.966Z,12.63
2018-10-05T23:20:09.761Z,15.88
2018-10-05T23:22:38.805Z,16.95
2018-10-05T23:25:08.102Z,24.57
2018-10-05T23:27:37.039Z,10.93
2018-10-05T23:30:06.082Z,10.72
2018-10-05T23:32:35.124Z,11.43
2018-10-05T23:35:04.305Z,13.25
2018-10-05T23:37:33.486Z,12.68
2018-10-05T23:40:02.354Z,13.05
2018-10-05T23:42:31.381Z,31.77
2018-10-05T23:45:00.434Z,15.05
2018-10-05T23:47:29.498Z,14.78
2018-10-05T23:49:58.361Z,14.60
2018-10-05T23:52:46.040Z,16.93
2018-10-05T23:55:15.141Z,13.38
2018-10-05T23:57:44.282Z,13.00
